Penobscot, Maine
Current Conditions -  °F | °C
As of 9:35 PM on Friday 24 Oct 2014 (Local Time) from KBHB Reporting Station
Overcast Overcast  
Wind Chill: 41°   Ceiling: 1000
Heat Index: 45°   Visibility: 10mi
Dew Point: 45°   Wind: 7mph
Humidity: 100%   Direction: 330°NNW
Pressure: 29.65"   Gusts: NA
Location:  44.39°N, 68.81°W
Report Text: KBHB 250135Z AUTO 33006KT 10SM OVC010 07/07 A2965 RMK AO1
Loading
Personal Weather Stations






























Interactive Weather Map
Tropical Storm Tracking
New forecast layout! Learn more

10-Day Weather Forecast

Advertisements
Track Severe Weather on mobile